Time;durP1;ratioP1;P1;durP2;ratioP2;P2;SDS_P1;SDS_P2;PMS_P1;PMS_P2;Temp;Humidity;BMP_temperature;BMP_pressure;BME280_temperature;BME280_humidity;BME280_pressure;Samples;Min_cycle;Max_cycle;Signal;HPM_P1;HPM_P2
2023/10/18 00:06:35;;;;;;;;;;;6.50;99.90;;;;;;6728249;88;20637;-82
2023/10/18 00:16:35;;;;;;;;;;;6.50;99.90;;;;;;6734521;88;20063;-82
2023/10/18 00:26:37;;;;;;;;;;;6.50;99.90;;;;;;6734539;88;20054;-82
2023/10/18 00:36:38;;;;;;;;;;;6.70;99.90;;;;;;6731061;88;20629;-78
2023/10/18 00:46:40;;;;;;;;;;;6.70;99.90;;;;;;6734847;88;20032;-78
2023/10/18 00:56:44;;;;;;;;;;;6.40;99.90;;;;;;6734771;88;20059;-77
2023/10/18 01:06:50;;;;;;;;;;;6.20;99.90;;;;;;6727926;88;20028;-80
2023/10/18 01:16:53;;;;;;;;;;;6.10;99.90;;;;;;6742771;88;20035;-77
2023/10/18 01:26:53;;;;;;;;;;;6.20;99.90;;;;;;6751115;88;20723;-78
2023/10/18 01:36:56;;;;;;;;;;;6.60;99.90;;;;;;6735565;88;20043;-80
2023/10/18 01:47:00;;;;;;;;;;;6.70;99.90;;;;;;6740534;88;20036;-78
2023/10/18 01:57:01;;;;;;;;;;;6.70;99.90;;;;;;6733686;88;20731;-78
2023/10/18 02:07:02;;;;;;;;;;;6.60;99.90;;;;;;6733856;88;20074;-78
2023/10/18 02:17:06;;;;;;;;;;;6.80;99.90;;;;;;6733697;88;20079;-78
2023/10/18 02:27:09;;;;;;;;;;;7.10;99.90;;;;;;6729150;88;20071;-78
2023/10/18 02:37:12;;;;;;;;;;;7.10;99.90;;;;;;6722369;88;20024;-78
2023/10/18 02:47:16;;;;;;;;;;;7.00;99.90;;;;;;6732978;88;20028;-77
2023/10/18 02:57:17;;;;;;;;;;;7.00;99.90;;;;;;6733066;88;20011;-78
2023/10/18 03:07:18;;;;;;;;;;;7.00;99.90;;;;;;6729128;88;20035;-78
2023/10/18 03:17:22;;;;;;;;;;;7.10;99.90;;;;;;6732549;88;20031;-79
2023/10/18 03:27:31;;;;;;;;;;;7.00;99.90;;;;;;6732538;88;20205;-78
2023/10/18 03:37:33;;;;;;;;;;;7.00;99.90;;;;;;6732555;88;20049;-78
2023/10/18 03:47:36;;;;;;;;;;;6.90;99.90;;;;;;6724903;88;20123;-77
2023/10/18 03:57:39;;;;;;;;;;;7.00;99.90;;;;;;6718190;88;20850;-79
2023/10/18 04:07:42;;;;;;;;;;;7.00;99.90;;;;;;6751285;88;20102;-78
2023/10/18 04:17:43;;;;;;;;;;;6.90;99.90;;;;;;6746706;88;20658;-79
2023/10/18 04:27:47;;;;;;;;;;;6.90;99.90;;;;;;6739404;88;20027;-78
2023/10/18 04:37:47;;;;;;;;;;;6.90;99.90;;;;;;6746615;88;20048;-78
2023/10/18 04:47:49;;;;;;;;;;;6.90;99.90;;;;;;6742371;88;21004;-79
2023/10/18 04:57:49;;;;;;;;;;;6.70;99.90;;;;;;6751144;88;20145;-80
2023/10/18 05:07:53;;;;;;;;;;;6.90;99.90;;;;;;6751541;88;20038;-80
2023/10/18 05:17:58;;;;;;;;;;;7.00;99.90;;;;;;6751562;88;20042;-79
2023/10/18 05:28:27;;;;;;;;;;;7.00;99.90;;;;;;6751182;88;20068;-79
2023/10/18 05:48:46;;;;;;;;;;;7.10;99.90;;;;;;6715278;88;20167;-79
2023/10/18 05:59:01;;;;;;;;;;;7.10;99.90;;;;;;6714464;88;20052;-78
2023/10/18 06:09:07;;;;;;;;;;;7.00;99.90;;;;;;6731598;88;20092;-79
2023/10/18 06:19:13;;;;;;;;;;;7.00;99.90;;;;;;6714792;88;20087;-80
2023/10/18 06:29:17;;;;;;;;;;;7.00;99.90;;;;;;6708615;88;20230;-79
2023/10/18 06:39:37;;;;;;;;;;;7.00;99.90;;;;;;6698509;88;20627;-78
2023/10/18 06:49:37;;;;;;;;;;;7.10;99.90;;;;;;6697091;88;20186;-78
2023/10/18 06:59:38;;;;;;;;;;;7.20;99.90;;;;;;6694957;88;20085;-79
2023/10/18 07:09:42;;;;;;;;;;;7.30;99.90;;;;;;6715312;88;20071;-79
2023/10/18 07:19:48;;;;;;;;;;;7.40;99.90;;;;;;6703946;88;20056;-80
2023/10/18 07:29:49;;;;;;;;;;;7.50;99.90;;;;;;6702168;88;20183;-80
2023/10/18 07:39:59;;;;;;;;;;;7.70;99.90;;;;;;6701031;88;20066;-80
2023/10/18 07:50:00;;;;;;;;;;;8.20;99.90;;;;;;6700519;88;20063;-80
2023/10/18 08:10:20;;;;;;;;;;;8.30;99.90;;;;;;6725536;88;20102;-81
2023/10/18 08:30:24;;;;;;;;;;;8.90;99.90;;;;;;6716800;88;20092;-80
2023/10/18 08:40:28;;;;;;;;;;;9.50;99.90;;;;;;6714724;88;20577;-81
2023/10/18 08:50:32;;;;;;;;;;;9.60;99.90;;;;;;6713312;88;20498;-80
2023/10/18 09:10:33;;;;;;;;;;;10.00;99.90;;;;;;6712729;88;20070;-79
2023/10/18 09:20:37;;;;;;;;;;;10.10;99.90;;;;;;6710415;88;20107;-80
2023/10/18 09:30:37;;;;;;;;;;;10.20;99.90;;;;;;6695653;88;20169;-80
2023/10/18 09:40:40;;;;;;;;;;;10.60;99.90;;;;;;6710951;88;20086;-79
2023/10/18 09:50:41;;;;;;;;;;;11.50;99.90;;;;;;6707738;88;20126;-79
2023/10/18 10:00:50;;;;;;;;;;;11.80;99.90;;;;;;6692854;88;20070;-80
2023/10/18 10:10:51;;;;;;;;;;;12.80;99.90;;;;;;6698910;88;20502;-79
2023/10/18 10:20:54;;;;;;;;;;;13.30;99.90;;;;;;6698789;88;20071;-79
2023/10/18 10:30:56;;;;;;;;;;;13.70;99.90;;;;;;6700502;88;20681;-80
2023/10/18 10:51:27;;;;;;;;;;;14.40;99.90;;;;;;6710398;88;20436;-81
2023/10/18 11:01:39;;;;;;;;;;;14.50;99.90;;;;;;6710299;88;20068;-80
2023/10/18 11:11:40;;;;;;;;;;;14.70;99.90;;;;;;6691947;88;20079;-76
2023/10/18 11:21:41;;;;;;;;;;;15.10;99.90;;;;;;6690179;88;20074;-76
2023/10/18 11:31:44;;;;;;;;;;;15.20;99.90;;;;;;6690263;88;20084;-73
2023/10/18 11:41:46;;;;;;;;;;;15.70;99.90;;;;;;6686501;88;20215;-74
2023/10/18 11:51:48;;;;;;;;;;;15.20;99.90;;;;;;6690610;88;20607;-74
2023/10/18 12:01:55;;;;;;;;;;;15.40;99.90;;;;;;6686653;88;20068;-75
2023/10/18 12:11:56;;;;;;;;;;;15.70;99.90;;;;;;6694130;88;20072;-77
2023/10/18 12:21:59;;;;;;;;;;;15.80;99.90;;;;;;6703951;88;20082;-79
2023/10/18 12:32:25;;;;;;;;;;;16.10;99.90;;;;;;6705592;88;20061;-80
2023/10/18 12:42:33;;;;;;;;;;;16.10;99.90;;;;;;6712441;88;20063;-79
2023/10/18 13:12:56;;;;;;;;;;;15.40;99.90;;;;;;6694036;88;20065;-80
2023/10/18 13:22:56;;;;;;;;;;;15.50;99.90;;;;;;6697310;88;20490;-80
2023/10/18 13:33:01;;;;;;;;;;;15.70;99.90;;;;;;6695712;88;20089;-80
2023/10/18 13:43:03;;;;;;;;;;;15.60;99.90;;;;;;6695282;88;20622;-80
2023/10/18 13:53:03;;;;;;;;;;;15.70;99.90;;;;;;6707136;88;20196;-80
2023/10/18 14:03:07;;;;;;;;;;;15.90;99.90;;;;;;6708621;88;20055;-79
2023/10/18 14:13:08;;;;;;;;;;;15.60;99.90;;;;;;6704356;88;20144;-80
2023/10/18 14:23:10;;;;;;;;;;;15.40;99.90;;;;;;6697785;88;20495;-80
2023/10/18 14:33:10;;;;;;;;;;;15.40;99.90;;;;;;6693077;88;20107;-79
2023/10/18 14:43:11;;;;;;;;;;;15.10;99.90;;;;;;6693240;88;20506;-78
2023/10/18 14:53:15;;;;;;;;;;;15.00;99.90;;;;;;6703658;88;20146;-79
2023/10/18 15:03:17;;;;;;;;;;;14.70;99.90;;;;;;6700226;88;20057;-79
2023/10/18 15:13:18;;;;;;;;;;;14.60;99.90;;;;;;6689298;88;20085;-80
2023/10/18 15:23:23;;;;;;;;;;;14.60;99.90;;;;;;6705295;88;20054;-80
2023/10/18 15:33:23;;;;;;;;;;;14.50;99.90;;;;;;6697680;88;20598;-79
2023/10/18 15:43:26;;;;;;;;;;;14.50;99.90;;;;;;6710638;88;20063;-79
2023/10/18 15:53:28;;;;;;;;;;;14.50;99.90;;;;;;6702706;88;20081;-79
2023/10/18 16:03:28;;;;;;;;;;;14.50;99.90;;;;;;6708814;88;20055;-80
2023/10/18 16:13:29;;;;;;;;;;;14.30;99.90;;;;;;6697234;88;20582;-79
2023/10/18 16:23:30;;;;;;;;;;;14.30;99.90;;;;;;6703259;88;20089;-79
2023/10/18 16:33:30;;;;;;;;;;;14.20;99.90;;;;;;6699501;88;20059;-80
2023/10/18 16:43:32;;;;;;;;;;;14.10;99.90;;;;;;6701003;88;20059;-80
2023/10/18 16:53:32;;;;;;;;;;;14.10;99.90;;;;;;6707401;88;20333;-81
2023/10/18 17:03:33;;;;;;;;;;;14.00;99.90;;;;;;6700105;88;20164;-80
2023/10/18 17:13:36;;;;;;;;;;;14.00;99.90;;;;;;6696260;88;20049;-81
2023/10/18 17:23:36;;;;;;;;;;;13.80;99.90;;;;;;6693068;88;20113;-80
2023/10/18 17:33:37;;;;;;;;;;;13.80;99.90;;;;;;6698617;88;20135;-80
2023/10/18 17:43:37;;;;;;;;;;;13.80;99.90;;;;;;6691119;88;20077;-80
2023/10/18 18:03:41;;;;;;;;;;;13.60;99.90;;;;;;6710757;88;20525;-80
2023/10/18 18:13:45;;;;;;;;;;;13.60;99.90;;;;;;6694155;88;20109;-80
2023/10/18 18:23:46;;;;;;;;;;;13.60;99.90;;;;;;6696018;88;20528;-80
2023/10/18 18:33:46;;;;;;;;;;;13.60;99.90;;;;;;6692510;88;20083;-80
2023/10/18 18:43:47;;;;;;;;;;;13.60;99.90;;;;;;6690482;88;20056;-80
2023/10/18 18:53:47;;;;;;;;;;;13.60;99.90;;;;;;6690680;88;20492;-80
2023/10/18 19:03:48;;;;;;;;;;;13.60;99.90;;;;;;6690574;88;20578;-81
2023/10/18 19:13:50;;;;;;;;;;;13.60;99.90;;;;;;6693225;89;20639;-82
2023/10/18 19:23:51;;;;;;;;;;;13.50;99.90;;;;;;6691856;89;20832;-80
2023/10/18 19:33:51;;;;;;;;;;;13.40;99.90;;;;;;6690930;89;20225;-81
2023/10/18 19:43:52;;;;;;;;;;;13.10;99.90;;;;;;6701341;89;20092;-81
2023/10/18 19:53:55;;;;;;;;;;;12.30;99.90;;;;;;6710390;88;20054;-80
2023/10/18 20:03:56;;;;;;;;;;;11.60;99.90;;;;;;6695847;89;20057;-81
2023/10/18 20:13:57;;;;;;;;;;;11.40;99.90;;;;;;6689860;89;20145;-80
2023/10/18 20:23:58;;;;;;;;;;;11.00;99.90;;;;;;6694547;88;20590;-79
2023/10/18 20:33:59;;;;;;;;;;;10.70;99.90;;;;;;6692515;88;20644;-79
2023/10/18 20:43:59;;;;;;;;;;;10.70;99.90;;;;;;6689406;89;20491;-80
2023/10/18 20:54:00;;;;;;;;;;;10.60;99.90;;;;;;6698263;88;20545;-80
2023/10/18 21:04:01;;;;;;;;;;;10.60;99.90;;;;;;6694154;88;20082;-80
2023/10/18 21:14:02;;;;;;;;;;;10.60;99.90;;;;;;6695356;88;20071;-81
2023/10/18 21:24:04;;;;;;;;;;;10.50;99.90;;;;;;6694682;88;20187;-80
2023/10/18 21:34:04;;;;;;;;;;;10.50;99.90;;;;;;6692580;88;20065;-81
2023/10/18 21:44:05;;;;;;;;;;;10.40;99.90;;;;;;6693978;89;20068;-80
2023/10/18 21:54:06;;;;;;;;;;;10.30;99.90;;;;;;6690405;88;20059;-80
2023/10/18 22:04:07;;;;;;;;;;;10.30;99.90;;;;;;6694713;88;20070;-80
2023/10/18 22:14:19;;;;;;;;;;;10.40;99.90;;;;;;6695034;89;20067;-79
2023/10/18 22:24:21;;;;;;;;;;;10.40;99.90;;;;;;6670820;89;20108;-79
2023/10/18 22:34:22;;;;;;;;;;;10.50;99.90;;;;;;6672075;89;20568;-79
2023/10/18 22:44:38;;;;;;;;;;;10.60;99.90;;;;;;6668117;89;20135;-79
2023/10/18 22:54:42;;;;;;;;;;;10.60;99.90;;;;;;6671456;89;20509;-79
2023/10/18 23:04:44;;;;;;;;;;;10.60;99.90;;;;;;6672437;89;20073;-78
2023/10/18 23:14:53;;;;;;;;;;;10.70;99.90;;;;;;6672571;89;20052;-79
2023/10/18 23:24:57;;;;;;;;;;;10.70;99.90;;;;;;6673026;89;20061;-78
2023/10/18 23:45:19;;;;;;;;;;;10.80;99.90;;;;;;6674604;89;20061;-79
